<?xml version="1.0" encoding="UTF-8" standalone="no" ?>
<gpx xmlns="http://www.topografix.com/GPX/1/1" xmlns:xsi="http://www.w3.org/2001/XMLSchema-instance" xsi:schemaLocation="http://www.topografix.com/GPX/1/1 http://www.topografix.com/GPX/1/1/gpx.xsd" version="1.1" creator="VisuGPX - https://www.visugpx.com">
  <metadata>
    <name>Allemont-Gay-Coteyssart-26/10/2013</name>
    <desc><![CDATA[Rando VTT au départ d\'Allemont :
Allemont-Gay-Coteyssart le 26/10/2013]]></desc>
  </metadata>
  <trk>
    <name><![CDATA[26-OCT-13 15:22:52]]></name>
    <trkseg>
      <trkpt lat="45.15366" lon="6.04563">
        <ele>779.77</ele>
        <time>2013-10-26T08:23:48Z</time>
      </trkpt>
      <trkpt lat="45.15372" lon="6.04553">
        <ele>788.9</ele>
        <time>2013-10-26T08:26:51Z</time>
      </trkpt>
      <trkpt lat="45.15514" lon="6.04498">
        <ele>801.4</ele>
        <time>2013-10-26T08:28:13Z</time>
      </trkpt>
      <trkpt lat="45.15571" lon="6.0447">
        <ele>806.2</ele>
        <time>2013-10-26T08:28:46Z</time>
      </trkpt>
      <trkpt lat="45.15624" lon="6.04437">
        <ele>812.45</ele>
        <time>2013-10-26T08:29:24Z</time>
      </trkpt>
      <trkpt lat="45.15673" lon="6.04396">
        <ele>818.7</ele>
        <time>2013-10-26T08:30:05Z</time>
      </trkpt>
      <trkpt lat="45.15737" lon="6.04348">
        <ele>826.39</ele>
        <time>2013-10-26T08:30:56Z</time>
      </trkpt>
      <trkpt lat="45.15815" lon="6.04322">
        <ele>834.56</ele>
        <time>2013-10-26T08:31:51Z</time>
      </trkpt>
      <trkpt lat="45.15878" lon="6.04301">
        <ele>841.77</ele>
        <time>2013-10-26T08:32:38Z</time>
      </trkpt>
      <trkpt lat="45.15943" lon="6.04275">
        <ele>848.02</ele>
        <time>2013-10-26T08:33:22Z</time>
      </trkpt>
      <trkpt lat="45.16" lon="6.04242">
        <ele>853.31</ele>
        <time>2013-10-26T08:34:03Z</time>
      </trkpt>
      <trkpt lat="45.16056" lon="6.04201">
        <ele>856.67</ele>
        <time>2013-10-26T08:34:35Z</time>
      </trkpt>
      <trkpt lat="45.16112" lon="6.04212">
        <ele>860.04</ele>
        <time>2013-10-26T08:35:05Z</time>
      </trkpt>
      <trkpt lat="45.1616" lon="6.04231">
        <ele>862.92</ele>
        <time>2013-10-26T08:35:29Z</time>
      </trkpt>
      <trkpt lat="45.162" lon="6.04254">
        <ele>866.29</ele>
        <time>2013-10-26T08:35:53Z</time>
      </trkpt>
      <trkpt lat="45.16242" lon="6.0425">
        <ele>867.25</ele>
        <time>2013-10-26T08:36:10Z</time>
      </trkpt>
      <trkpt lat="45.16279" lon="6.04246">
        <ele>869.17</ele>
        <time>2013-10-26T08:36:25Z</time>
      </trkpt>
      <trkpt lat="45.16315" lon="6.04245">
        <ele>871.09</ele>
        <time>2013-10-26T08:36:42Z</time>
      </trkpt>
      <trkpt lat="45.16349" lon="6.04241">
        <ele>873.5</ele>
        <time>2013-10-26T08:36:57Z</time>
      </trkpt>
      <trkpt lat="45.16376" lon="6.0427">
        <ele>876.86</ele>
        <time>2013-10-26T08:37:21Z</time>
      </trkpt>
      <trkpt lat="45.164" lon="6.04275">
        <ele>880.71</ele>
        <time>2013-10-26T08:37:48Z</time>
      </trkpt>
      <trkpt lat="45.16424" lon="6.04302">
        <ele>884.07</ele>
        <time>2013-10-26T08:38:09Z</time>
      </trkpt>
      <trkpt lat="45.1646" lon="6.04298">
        <ele>887.43</ele>
        <time>2013-10-26T08:38:34Z</time>
      </trkpt>
      <trkpt lat="45.1649" lon="6.04287">
        <ele>889.36</ele>
        <time>2013-10-26T08:38:51Z</time>
      </trkpt>
      <trkpt lat="45.16519" lon="6.04286">
        <ele>892.24</ele>
        <time>2013-10-26T08:39:07Z</time>
      </trkpt>
      <trkpt lat="45.16544" lon="6.04301">
        <ele>894.64</ele>
        <time>2013-10-26T08:39:26Z</time>
      </trkpt>
      <trkpt lat="45.16575" lon="6.04294">
        <ele>897.05</ele>
        <time>2013-10-26T08:39:44Z</time>
      </trkpt>
      <trkpt lat="45.16612" lon="6.04283">
        <ele>899.45</ele>
        <time>2013-10-26T08:40:00Z</time>
      </trkpt>
      <trkpt lat="45.16635" lon="6.04276">
        <ele>901.85</ele>
        <time>2013-10-26T08:40:15Z</time>
      </trkpt>
      <trkpt lat="45.16663" lon="6.04262">
        <ele>904.74</ele>
        <time>2013-10-26T08:40:33Z</time>
      </trkpt>
      <trkpt lat="45.16689" lon="6.04247">
        <ele>906.66</ele>
        <time>2013-10-26T08:40:47Z</time>
      </trkpt>
      <trkpt lat="45.16703" lon="6.04244">
        <ele>908.58</ele>
        <time>2013-10-26T08:41:00Z</time>
      </trkpt>
      <trkpt lat="45.16712" lon="6.04242">
        <ele>910.99</ele>
        <time>2013-10-26T08:41:16Z</time>
      </trkpt>
      <trkpt lat="45.16697" lon="6.04238">
        <ele>912.91</ele>
        <time>2013-10-26T08:41:37Z</time>
      </trkpt>
      <trkpt lat="45.16711" lon="6.04223">
        <ele>914.35</ele>
        <time>2013-10-26T08:41:51Z</time>
      </trkpt>
      <trkpt lat="45.16735" lon="6.04198">
        <ele>916.27</ele>
        <time>2013-10-26T08:42:07Z</time>
      </trkpt>
      <trkpt lat="45.16768" lon="6.0418">
        <ele>919.16</ele>
        <time>2013-10-26T08:42:25Z</time>
      </trkpt>
      <trkpt lat="45.16797" lon="6.04161">
        <ele>921.56</ele>
        <time>2013-10-26T08:42:38Z</time>
      </trkpt>
      <trkpt lat="45.16811" lon="6.04155">
        <ele>923.96</ele>
        <time>2013-10-26T08:42:53Z</time>
      </trkpt>
      <trkpt lat="45.16818" lon="6.04156">
        <ele>926.37</ele>
        <time>2013-10-26T08:43:07Z</time>
      </trkpt>
      <trkpt lat="45.16812" lon="6.04171">
        <ele>928.77</ele>
        <time>2013-10-26T08:43:23Z</time>
      </trkpt>
      <trkpt lat="45.16812" lon="6.04193">
        <ele>932.62</ele>
        <time>2013-10-26T08:43:46Z</time>
      </trkpt>
      <trkpt lat="45.16806" lon="6.04232">
        <ele>937.42</ele>
        <time>2013-10-26T08:44:25Z</time>
      </trkpt>
      <trkpt lat="45.16832" lon="6.04224">
        <ele>940.79</ele>
        <time>2013-10-26T08:44:51Z</time>
      </trkpt>
      <trkpt lat="45.16852" lon="6.04219">
        <ele>945.11</ele>
        <time>2013-10-26T08:45:18Z</time>
      </trkpt>
      <trkpt lat="45.16861" lon="6.04241">
        <ele>949.92</ele>
        <time>2013-10-26T08:45:44Z</time>
      </trkpt>
      <trkpt lat="45.16867" lon="6.04253">
        <ele>952.32</ele>
        <time>2013-10-26T08:46:00Z</time>
      </trkpt>
      <trkpt lat="45.16808" lon="6.04371">
        <ele>957.61</ele>
        <time>2013-10-26T08:46:35Z</time>
      </trkpt>
      <trkpt lat="45.16766" lon="6.04472">
        <ele>962.9</ele>
        <time>2013-10-26T08:47:08Z</time>
      </trkpt>
      <trkpt lat="45.16685" lon="6.04628">
        <ele>974.91</ele>
        <time>2013-10-26T08:48:24Z</time>
      </trkpt>
      <trkpt lat="45.16654" lon="6.04717">
        <ele>979.24</ele>
        <time>2013-10-26T08:49:01Z</time>
      </trkpt>
      <trkpt lat="45.16618" lon="6.04832">
        <ele>982.6</ele>
        <time>2013-10-26T08:49:38Z</time>
      </trkpt>
      <trkpt lat="45.16624" lon="6.04864">
        <ele>984.05</ele>
        <time>2013-10-26T08:49:53Z</time>
      </trkpt>
      <trkpt lat="45.16627" lon="6.04879">
        <ele>985.01</ele>
        <time>2013-10-26T08:50:05Z</time>
      </trkpt>
      <trkpt lat="45.16644" lon="6.04865">
        <ele>985.01</ele>
        <time>2013-10-26T08:50:17Z</time>
      </trkpt>
      <trkpt lat="45.16663" lon="6.04862">
        <ele>986.45</ele>
        <time>2013-10-26T08:50:27Z</time>
      </trkpt>
      <trkpt lat="45.16677" lon="6.04868">
        <ele>987.89</ele>
        <time>2013-10-26T08:50:36Z</time>
      </trkpt>
      <trkpt lat="45.1775" lon="6.03669">
        <ele>990.78</ele>
        <time>2013-10-26T08:52:28Z</time>
      </trkpt>
      <trkpt lat="45.17814" lon="6.03664">
        <ele>996.54</ele>
        <time>2013-10-26T08:53:03Z</time>
      </trkpt>
      <trkpt lat="45.17862" lon="6.03649">
        <ele>1002.79</ele>
        <time>2013-10-26T08:53:42Z</time>
      </trkpt>
      <trkpt lat="45.17922" lon="6.03639">
        <ele>1009.52</ele>
        <time>2013-10-26T08:54:24Z</time>
      </trkpt>
      <trkpt lat="45.17967" lon="6.036">
        <ele>1015.77</ele>
        <time>2013-10-26T08:55:06Z</time>
      </trkpt>
      <trkpt lat="45.18056" lon="6.03576">
        <ele>1035</ele>
        <time>2013-10-26T08:57:08Z</time>
      </trkpt>
      <trkpt lat="45.18145" lon="6.03554">
        <ele>1046.53</ele>
        <time>2013-10-26T08:58:29Z</time>
      </trkpt>
      <trkpt lat="45.18303" lon="6.03486">
        <ele>1056.63</ele>
        <time>2013-10-26T08:59:45Z</time>
      </trkpt>
      <trkpt lat="45.18504" lon="6.03462">
        <ele>1075.85</ele>
        <time>2013-10-26T09:01:50Z</time>
      </trkpt>
      <trkpt lat="45.18606" lon="6.03423">
        <ele>1086.91</ele>
        <time>2013-10-26T09:03:00Z</time>
      </trkpt>
      <trkpt lat="45.18687" lon="6.03379">
        <ele>1096.04</ele>
        <time>2013-10-26T09:04:06Z</time>
      </trkpt>
      <trkpt lat="45.18778" lon="6.03456">
        <ele>1106.61</ele>
        <time>2013-10-26T09:05:10Z</time>
      </trkpt>
      <trkpt lat="45.18816" lon="6.03536">
        <ele>1114.79</ele>
        <time>2013-10-26T09:05:56Z</time>
      </trkpt>
      <trkpt lat="45.18889" lon="6.03545">
        <ele>1122.48</ele>
        <time>2013-10-26T09:06:43Z</time>
      </trkpt>
      <trkpt lat="45.18951" lon="6.03575">
        <ele>1131.61</ele>
        <time>2013-10-26T09:07:36Z</time>
      </trkpt>
      <trkpt lat="45.19025" lon="6.03602">
        <ele>1139.78</ele>
        <time>2013-10-26T09:08:25Z</time>
      </trkpt>
      <trkpt lat="45.19112" lon="6.03616">
        <ele>1149.87</ele>
        <time>2013-10-26T09:09:28Z</time>
      </trkpt>
      <trkpt lat="45.19197" lon="6.03659">
        <ele>1160.45</ele>
        <time>2013-10-26T09:10:34Z</time>
      </trkpt>
      <trkpt lat="45.19275" lon="6.03684">
        <ele>1171.5</ele>
        <time>2013-10-26T09:11:43Z</time>
      </trkpt>
      <trkpt lat="45.19334" lon="6.03759">
        <ele>1181.12</ele>
        <time>2013-10-26T09:12:41Z</time>
      </trkpt>
      <trkpt lat="45.19372" lon="6.03809">
        <ele>1188.33</ele>
        <time>2013-10-26T09:13:23Z</time>
      </trkpt>
      <trkpt lat="45.19412" lon="6.03841">
        <ele>1194.58</ele>
        <time>2013-10-26T09:14:02Z</time>
      </trkpt>
      <trkpt lat="45.19474" lon="6.03839">
        <ele>1201.3</ele>
        <time>2013-10-26T09:14:47Z</time>
      </trkpt>
      <trkpt lat="45.19553" lon="6.03855">
        <ele>1208.51</ele>
        <time>2013-10-26T09:15:33Z</time>
      </trkpt>
      <trkpt lat="45.19607" lon="6.03897">
        <ele>1214.76</ele>
        <time>2013-10-26T09:16:14Z</time>
      </trkpt>
      <trkpt lat="45.19683" lon="6.03913">
        <ele>1224.38</ele>
        <time>2013-10-26T09:17:14Z</time>
      </trkpt>
      <trkpt lat="45.19794" lon="6.03924">
        <ele>1234.47</ele>
        <time>2013-10-26T09:18:20Z</time>
      </trkpt>
      <trkpt lat="45.19877" lon="6.03946">
        <ele>1240.24</ele>
        <time>2013-10-26T09:19:11Z</time>
      </trkpt>
      <trkpt lat="45.19943" lon="6.03919">
        <ele>1242.16</ele>
        <time>2013-10-26T09:19:47Z</time>
      </trkpt>
      <trkpt lat="45.19997" lon="6.03919">
        <ele>1245.04</ele>
        <time>2013-10-26T09:23:16Z</time>
      </trkpt>
      <trkpt lat="45.20048" lon="6.03934">
        <ele>1246.01</ele>
        <time>2013-10-26T09:23:38Z</time>
      </trkpt>
      <trkpt lat="45.20097" lon="6.03953">
        <ele>1246.97</ele>
        <time>2013-10-26T09:23:57Z</time>
      </trkpt>
      <trkpt lat="45.20143" lon="6.03955">
        <ele>1247.93</ele>
        <time>2013-10-26T09:24:34Z</time>
      </trkpt>
      <trkpt lat="45.20184" lon="6.03982">
        <ele>1248.89</ele>
        <time>2013-10-26T09:24:51Z</time>
      </trkpt>
      <trkpt lat="45.20221" lon="6.04024">
        <ele>1250.81</ele>
        <time>2013-10-26T09:25:10Z</time>
      </trkpt>
      <trkpt lat="45.20269" lon="6.0403">
        <ele>1253.7</ele>
        <time>2013-10-26T09:26:26Z</time>
      </trkpt>
      <trkpt lat="45.20317" lon="6.04029">
        <ele>1256.58</ele>
        <time>2013-10-26T09:26:49Z</time>
      </trkpt>
      <trkpt lat="45.20285" lon="6.04009">
        <ele>1259.46</ele>
        <time>2013-10-26T09:27:11Z</time>
      </trkpt>
      <trkpt lat="45.20242" lon="6.04005">
        <ele>1259.46</ele>
        <time>2013-10-26T09:27:29Z</time>
      </trkpt>
      <trkpt lat="45.20204" lon="6.0397">
        <ele>1259.46</ele>
        <time>2013-10-26T09:27:41Z</time>
      </trkpt>
      <trkpt lat="45.2017" lon="6.03928">
        <ele>1262.35</ele>
        <time>2013-10-26T09:28:06Z</time>
      </trkpt>
      <trkpt lat="45.20118" lon="6.03902">
        <ele>1268.12</ele>
        <time>2013-10-26T09:28:42Z</time>
      </trkpt>
      <trkpt lat="45.2007" lon="6.03855">
        <ele>1274.36</ele>
        <time>2013-10-26T09:29:20Z</time>
      </trkpt>
      <trkpt lat="45.20022" lon="6.03813">
        <ele>1282.54</ele>
        <time>2013-10-26T09:30:05Z</time>
      </trkpt>
      <trkpt lat="45.19971" lon="6.03775">
        <ele>1291.19</ele>
        <time>2013-10-26T09:30:47Z</time>
      </trkpt>
      <trkpt lat="45.19919" lon="6.03751">
        <ele>1292.15</ele>
        <time>2013-10-26T09:31:22Z</time>
      </trkpt>
      <trkpt lat="45.19864" lon="6.03754">
        <ele>1298.88</ele>
        <time>2013-10-26T09:32:01Z</time>
      </trkpt>
      <trkpt lat="45.19809" lon="6.03737">
        <ele>1302.72</ele>
        <time>2013-10-26T09:32:41Z</time>
      </trkpt>
      <trkpt lat="45.19746" lon="6.03709">
        <ele>1305.61</ele>
        <time>2013-10-26T09:33:07Z</time>
      </trkpt>
      <trkpt lat="45.1969" lon="6.037">
        <ele>1309.45</ele>
        <time>2013-10-26T09:33:39Z</time>
      </trkpt>
      <trkpt lat="45.19629" lon="6.0367">
        <ele>1311.38</ele>
        <time>2013-10-26T09:34:07Z</time>
      </trkpt>
      <trkpt lat="45.19575" lon="6.03647">
        <ele>1313.3</ele>
        <time>2013-10-26T09:34:29Z</time>
      </trkpt>
      <trkpt lat="45.19534" lon="6.03602">
        <ele>1316.18</ele>
        <time>2013-10-26T09:34:59Z</time>
      </trkpt>
      <trkpt lat="45.19479" lon="6.03537">
        <ele>1322.43</ele>
        <time>2013-10-26T09:35:47Z</time>
      </trkpt>
      <trkpt lat="45.19412" lon="6.03473">
        <ele>1327.24</ele>
        <time>2013-10-26T09:36:33Z</time>
      </trkpt>
      <trkpt lat="45.19353" lon="6.03434">
        <ele>1327.24</ele>
        <time>2013-10-26T09:36:58Z</time>
      </trkpt>
      <trkpt lat="45.19285" lon="6.03379">
        <ele>1333.01</ele>
        <time>2013-10-26T09:37:37Z</time>
      </trkpt>
      <trkpt lat="45.19223" lon="6.03351">
        <ele>1335.41</ele>
        <time>2013-10-26T09:38:08Z</time>
      </trkpt>
      <trkpt lat="45.19167" lon="6.03313">
        <ele>1337.81</ele>
        <time>2013-10-26T09:38:37Z</time>
      </trkpt>
      <trkpt lat="45.19124" lon="6.03281">
        <ele>1343.1</ele>
        <time>2013-10-26T09:39:11Z</time>
      </trkpt>
      <trkpt lat="45.19079" lon="6.03224">
        <ele>1345.5</ele>
        <time>2013-10-26T09:39:39Z</time>
      </trkpt>
      <trkpt lat="45.19034" lon="6.03189">
        <ele>1347.43</ele>
        <time>2013-10-26T09:40:03Z</time>
      </trkpt>
      <trkpt lat="45.18996" lon="6.03138">
        <ele>1350.31</ele>
        <time>2013-10-26T09:40:32Z</time>
      </trkpt>
      <trkpt lat="45.19011" lon="6.03063">
        <ele>1356.08</ele>
        <time>2013-10-26T09:42:51Z</time>
      </trkpt>
      <trkpt lat="45.19031" lon="6.03">
        <ele>1360.4</ele>
        <time>2013-10-26T09:43:24Z</time>
      </trkpt>
      <trkpt lat="45.19049" lon="6.02927">
        <ele>1365.69</ele>
        <time>2013-10-26T09:44:05Z</time>
      </trkpt>
      <trkpt lat="45.1906" lon="6.0285">
        <ele>1370.5</ele>
        <time>2013-10-26T09:44:41Z</time>
      </trkpt>
      <trkpt lat="45.19074" lon="6.02781">
        <ele>1375.78</ele>
        <time>2013-10-26T09:45:16Z</time>
      </trkpt>
      <trkpt lat="45.19093" lon="6.02705">
        <ele>1380.11</ele>
        <time>2013-10-26T09:45:54Z</time>
      </trkpt>
      <trkpt lat="45.19075" lon="6.02622">
        <ele>1387.8</ele>
        <time>2013-10-26T09:46:49Z</time>
      </trkpt>
      <trkpt lat="45.1906" lon="6.02527">
        <ele>1391.65</ele>
        <time>2013-10-26T09:47:37Z</time>
      </trkpt>
      <trkpt lat="45.19031" lon="6.02529">
        <ele>1392.61</ele>
        <time>2013-10-26T09:50:54Z</time>
      </trkpt>
      <trkpt lat="45.19006" lon="6.02591">
        <ele>1390.68</ele>
        <time>2013-10-26T09:51:32Z</time>
      </trkpt>
      <trkpt lat="45.1898" lon="6.02645">
        <ele>1387.8</ele>
        <time>2013-10-26T09:51:43Z</time>
      </trkpt>
      <trkpt lat="45.18979" lon="6.02644">
        <ele>1388.76</ele>
        <time>2013-10-26T09:53:33Z</time>
      </trkpt>
      <trkpt lat="45.19002" lon="6.02569">
        <ele>1392.13</ele>
        <time>2013-10-26T09:54:00Z</time>
      </trkpt>
      <trkpt lat="45.19" lon="6.02554">
        <ele>1394.53</ele>
        <time>2013-10-26T09:58:16Z</time>
      </trkpt>
      <trkpt lat="45.1902" lon="6.02621">
        <ele>1391.65</ele>
        <time>2013-10-26T09:58:31Z</time>
      </trkpt>
      <trkpt lat="45.18952" lon="6.02668">
        <ele>1389.24</ele>
        <time>2013-10-26T09:59:37Z</time>
      </trkpt>
      <trkpt lat="45.18949" lon="6.02683">
        <ele>1379.63</ele>
        <time>2013-10-26T10:00:43Z</time>
      </trkpt>
      <trkpt lat="45.18898" lon="6.02745">
        <ele>1364.73</ele>
        <time>2013-10-26T10:01:03Z</time>
      </trkpt>
      <trkpt lat="45.18843" lon="6.02797">
        <ele>1364.25</ele>
        <time>2013-10-26T10:02:29Z</time>
      </trkpt>
      <trkpt lat="45.18791" lon="6.02846">
        <ele>1362.33</ele>
        <time>2013-10-26T10:03:03Z</time>
      </trkpt>
      <trkpt lat="45.18745" lon="6.0289">
        <ele>1359.92</ele>
        <time>2013-10-26T10:03:44Z</time>
      </trkpt>
      <trkpt lat="45.18689" lon="6.02957">
        <ele>1360.4</ele>
        <time>2013-10-26T10:04:30Z</time>
      </trkpt>
      <trkpt lat="45.18635" lon="6.02989">
        <ele>1356.56</ele>
        <time>2013-10-26T10:04:53Z</time>
      </trkpt>
      <trkpt lat="45.18576" lon="6.03003">
        <ele>1353.19</ele>
        <time>2013-10-26T10:05:49Z</time>
      </trkpt>
      <trkpt lat="45.18506" lon="6.03003">
        <ele>1356.08</ele>
        <time>2013-10-26T10:06:36Z</time>
      </trkpt>
      <trkpt lat="45.18453" lon="6.02991">
        <ele>1364.25</ele>
        <time>2013-10-26T10:07:39Z</time>
      </trkpt>
      <trkpt lat="45.18384" lon="6.03025">
        <ele>1360.88</ele>
        <time>2013-10-26T10:08:24Z</time>
      </trkpt>
      <trkpt lat="45.18307" lon="6.03022">
        <ele>1368.57</ele>
        <time>2013-10-26T10:09:48Z</time>
      </trkpt>
      <trkpt lat="45.18256" lon="6.02993">
        <ele>1361.84</ele>
        <time>2013-10-26T10:10:12Z</time>
      </trkpt>
      <trkpt lat="45.18211" lon="6.02976">
        <ele>1363.29</ele>
        <time>2013-10-26T10:10:32Z</time>
      </trkpt>
      <trkpt lat="45.18145" lon="6.03022">
        <ele>1364.73</ele>
        <time>2013-10-26T10:11:26Z</time>
      </trkpt>
      <trkpt lat="45.18094" lon="6.03027">
        <ele>1362.81</ele>
        <time>2013-10-26T10:11:39Z</time>
      </trkpt>
      <trkpt lat="45.18024" lon="6.03028">
        <ele>1361.84</ele>
        <time>2013-10-26T10:12:07Z</time>
      </trkpt>
      <trkpt lat="45.17974" lon="6.03019">
        <ele>1358.96</ele>
        <time>2013-10-26T10:12:15Z</time>
      </trkpt>
      <trkpt lat="45.17924" lon="6.03019">
        <ele>1358.96</ele>
        <time>2013-10-26T10:12:43Z</time>
      </trkpt>
      <trkpt lat="45.17876" lon="6.02998">
        <ele>1347.43</ele>
        <time>2013-10-26T10:13:03Z</time>
      </trkpt>
      <trkpt lat="45.17835" lon="6.02948">
        <ele>1347.43</ele>
        <time>2013-10-26T10:13:30Z</time>
      </trkpt>
      <trkpt lat="45.17825" lon="6.02998">
        <ele>1337.81</ele>
        <time>2013-10-26T10:15:14Z</time>
      </trkpt>
      <trkpt lat="45.17815" lon="6.03061">
        <ele>1320.51</ele>
        <time>2013-10-26T10:15:35Z</time>
      </trkpt>
      <trkpt lat="45.17782" lon="6.03098">
        <ele>1298.88</ele>
        <time>2013-10-26T10:16:05Z</time>
      </trkpt>
      <trkpt lat="45.17753" lon="6.03131">
        <ele>1279.17</ele>
        <time>2013-10-26T10:16:30Z</time>
      </trkpt>
      <trkpt lat="45.17738" lon="6.03177">
        <ele>1259.94</ele>
        <time>2013-10-26T10:17:11Z</time>
      </trkpt>
      <trkpt lat="45.17739" lon="6.03239">
        <ele>1235.91</ele>
        <time>2013-10-26T10:17:46Z</time>
      </trkpt>
      <trkpt lat="45.17734" lon="6.03298">
        <ele>1212.84</ele>
        <time>2013-10-26T10:18:15Z</time>
      </trkpt>
      <trkpt lat="45.17727" lon="6.03327">
        <ele>1197.94</ele>
        <time>2013-10-26T10:18:29Z</time>
      </trkpt>
      <trkpt lat="45.17771" lon="6.03364">
        <ele>1185.92</ele>
        <time>2013-10-26T10:18:39Z</time>
      </trkpt>
      <trkpt lat="45.17814" lon="6.03393">
        <ele>1175.83</ele>
        <time>2013-10-26T10:19:16Z</time>
      </trkpt>
      <trkpt lat="45.17863" lon="6.03417">
        <ele>1158.05</ele>
        <time>2013-10-26T10:20:45Z</time>
      </trkpt>
      <trkpt lat="45.179" lon="6.03446">
        <ele>1138.34</ele>
        <time>2013-10-26T10:21:03Z</time>
      </trkpt>
      <trkpt lat="45.17859" lon="6.03472">
        <ele>1122.48</ele>
        <time>2013-10-26T10:21:15Z</time>
      </trkpt>
      <trkpt lat="45.17828" lon="6.03503">
        <ele>1102.77</ele>
        <time>2013-10-26T10:21:42Z</time>
      </trkpt>
      <trkpt lat="45.1778" lon="6.03538">
        <ele>1080.66</ele>
        <time>2013-10-26T10:22:13Z</time>
      </trkpt>
      <trkpt lat="45.1778" lon="6.0362">
        <ele>1056.63</ele>
        <time>2013-10-26T10:22:37Z</time>
      </trkpt>
      <trkpt lat="45.17803" lon="6.03659">
        <ele>1040.28</ele>
        <time>2013-10-26T10:23:00Z</time>
      </trkpt>
      <trkpt lat="45.17764" lon="6.03664">
        <ele>1035</ele>
        <time>2013-10-26T10:23:11Z</time>
      </trkpt>
      <trkpt lat="45.17723" lon="6.03631">
        <ele>1030.67</ele>
        <time>2013-10-26T10:23:16Z</time>
      </trkpt>
      <trkpt lat="45.17672" lon="6.0363">
        <ele>1027.79</ele>
        <time>2013-10-26T10:23:21Z</time>
      </trkpt>
      <trkpt lat="45.17625" lon="6.03663">
        <ele>1026.83</ele>
        <time>2013-10-26T10:23:26Z</time>
      </trkpt>
      <trkpt lat="45.17582" lon="6.03681">
        <ele>1025.38</ele>
        <time>2013-10-26T10:23:32Z</time>
      </trkpt>
      <trkpt lat="45.17532" lon="6.03696">
        <ele>1023.46</ele>
        <time>2013-10-26T10:23:38Z</time>
      </trkpt>
      <trkpt lat="45.17485" lon="6.03703">
        <ele>1021.54</ele>
        <time>2013-10-26T10:23:44Z</time>
      </trkpt>
      <trkpt lat="45.1744" lon="6.03719">
        <ele>1018.17</ele>
        <time>2013-10-26T10:23:49Z</time>
      </trkpt>
      <trkpt lat="45.17392" lon="6.03758">
        <ele>1011.44</ele>
        <time>2013-10-26T10:23:54Z</time>
      </trkpt>
      <trkpt lat="45.1734" lon="6.03776">
        <ele>1005.68</ele>
        <time>2013-10-26T10:23:58Z</time>
      </trkpt>
      <trkpt lat="45.17286" lon="6.03785">
        <ele>1001.35</ele>
        <time>2013-10-26T10:24:02Z</time>
      </trkpt>
      <trkpt lat="45.17231" lon="6.03806">
        <ele>995.58</ele>
        <time>2013-10-26T10:24:06Z</time>
      </trkpt>
      <trkpt lat="45.17177" lon="6.03831">
        <ele>989.81</ele>
        <time>2013-10-26T10:24:10Z</time>
      </trkpt>
      <trkpt lat="45.17126" lon="6.03866">
        <ele>984.53</ele>
        <time>2013-10-26T10:24:14Z</time>
      </trkpt>
      <trkpt lat="45.17079" lon="6.03894">
        <ele>980.68</ele>
        <time>2013-10-26T10:24:18Z</time>
      </trkpt>
      <trkpt lat="45.1703" lon="6.03921">
        <ele>976.36</ele>
        <time>2013-10-26T10:24:22Z</time>
      </trkpt>
      <trkpt lat="45.16981" lon="6.03959">
        <ele>970.59</ele>
        <time>2013-10-26T10:24:26Z</time>
      </trkpt>
      <trkpt lat="45.16928" lon="6.03977">
        <ele>964.34</ele>
        <time>2013-10-26T10:24:30Z</time>
      </trkpt>
      <trkpt lat="45.16879" lon="6.04012">
        <ele>959.53</ele>
        <time>2013-10-26T10:24:34Z</time>
      </trkpt>
      <trkpt lat="45.16851" lon="6.04069">
        <ele>957.13</ele>
        <time>2013-10-26T10:24:38Z</time>
      </trkpt>
      <trkpt lat="45.16819" lon="6.04116">
        <ele>954.25</ele>
        <time>2013-10-26T10:24:42Z</time>
      </trkpt>
      <trkpt lat="45.16772" lon="6.04144">
        <ele>949.92</ele>
        <time>2013-10-26T10:24:46Z</time>
      </trkpt>
      <trkpt lat="45.16721" lon="6.04168">
        <ele>945.59</ele>
        <time>2013-10-26T10:24:50Z</time>
      </trkpt>
      <trkpt lat="45.1667" lon="6.04181">
        <ele>941.75</ele>
        <time>2013-10-26T10:24:54Z</time>
      </trkpt>
      <trkpt lat="45.16618" lon="6.04187">
        <ele>937.9</ele>
        <time>2013-10-26T10:24:58Z</time>
      </trkpt>
      <trkpt lat="45.16564" lon="6.04193">
        <ele>933.58</ele>
        <time>2013-10-26T10:25:02Z</time>
      </trkpt>
      <trkpt lat="45.16513" lon="6.04208">
        <ele>929.25</ele>
        <time>2013-10-26T10:25:06Z</time>
      </trkpt>
      <trkpt lat="45.1646" lon="6.04211">
        <ele>925.89</ele>
        <time>2013-10-26T10:25:10Z</time>
      </trkpt>
      <trkpt lat="45.16408" lon="6.04222">
        <ele>920.6</ele>
        <time>2013-10-26T10:25:14Z</time>
      </trkpt>
      <trkpt lat="45.16357" lon="6.0422">
        <ele>917.72</ele>
        <time>2013-10-26T10:25:18Z</time>
      </trkpt>
      <trkpt lat="45.16307" lon="6.04223">
        <ele>914.35</ele>
        <time>2013-10-26T10:25:22Z</time>
      </trkpt>
      <trkpt lat="45.16259" lon="6.04228">
        <ele>911.95</ele>
        <time>2013-10-26T10:25:26Z</time>
      </trkpt>
      <trkpt lat="45.16212" lon="6.04227">
        <ele>909.54</ele>
        <time>2013-10-26T10:25:30Z</time>
      </trkpt>
      <trkpt lat="45.16158" lon="6.04215">
        <ele>906.66</ele>
        <time>2013-10-26T10:25:35Z</time>
      </trkpt>
      <trkpt lat="45.16104" lon="6.04208">
        <ele>903.78</ele>
        <time>2013-10-26T10:25:40Z</time>
      </trkpt>
      <trkpt lat="45.1605" lon="6.04212">
        <ele>900.89</ele>
        <time>2013-10-26T10:25:45Z</time>
      </trkpt>
      <trkpt lat="45.15999" lon="6.04239">
        <ele>898.49</ele>
        <time>2013-10-26T10:25:50Z</time>
      </trkpt>
      <trkpt lat="45.15948" lon="6.04273">
        <ele>894.64</ele>
        <time>2013-10-26T10:25:55Z</time>
      </trkpt>
      <trkpt lat="45.15906" lon="6.04292">
        <ele>890.32</ele>
        <time>2013-10-26T10:25:59Z</time>
      </trkpt>
      <trkpt lat="45.15862" lon="6.04298">
        <ele>884.55</ele>
        <time>2013-10-26T10:26:03Z</time>
      </trkpt>
      <trkpt lat="45.15817" lon="6.04314">
        <ele>881.19</ele>
        <time>2013-10-26T10:26:07Z</time>
      </trkpt>
      <trkpt lat="45.15765" lon="6.04323">
        <ele>880.22</ele>
        <time>2013-10-26T10:26:12Z</time>
      </trkpt>
      <trkpt lat="45.15721" lon="6.04329">
        <ele>879.74</ele>
        <time>2013-10-26T10:26:17Z</time>
      </trkpt>
      <trkpt lat="45.15678" lon="6.04347">
        <ele>879.26</ele>
        <time>2013-10-26T10:26:23Z</time>
      </trkpt>
      <trkpt lat="45.15631" lon="6.0437">
        <ele>878.3</ele>
        <time>2013-10-26T10:26:30Z</time>
      </trkpt>
      <trkpt lat="45.15584" lon="6.04391">
        <ele>877.82</ele>
        <time>2013-10-26T10:26:37Z</time>
      </trkpt>
      <trkpt lat="45.1554" lon="6.04412">
        <ele>877.34</ele>
        <time>2013-10-26T10:26:44Z</time>
      </trkpt>
      <trkpt lat="45.15495" lon="6.04421">
        <ele>876.38</ele>
        <time>2013-10-26T10:26:51Z</time>
      </trkpt>
      <trkpt lat="45.15451" lon="6.04445">
        <ele>875.42</ele>
        <time>2013-10-26T10:26:58Z</time>
      </trkpt>
      <trkpt lat="45.15407" lon="6.04442">
        <ele>874.94</ele>
        <time>2013-10-26T10:27:05Z</time>
      </trkpt>
      <trkpt lat="45.15356" lon="6.04434">
        <ele>874.46</ele>
        <time>2013-10-26T10:27:13Z</time>
      </trkpt>
      <trkpt lat="45.1531" lon="6.04434">
        <ele>873.5</ele>
        <time>2013-10-26T10:27:20Z</time>
      </trkpt>
      <trkpt lat="45.15264" lon="6.04442">
        <ele>872.53</ele>
        <time>2013-10-26T10:27:27Z</time>
      </trkpt>
      <trkpt lat="45.15216" lon="6.04451">
        <ele>871.57</ele>
        <time>2013-10-26T10:27:34Z</time>
      </trkpt>
      <trkpt lat="45.15168" lon="6.04477">
        <ele>869.65</ele>
        <time>2013-10-26T10:27:41Z</time>
      </trkpt>
      <trkpt lat="45.15121" lon="6.04483">
        <ele>870.13</ele>
        <time>2013-10-26T10:27:49Z</time>
      </trkpt>
      <trkpt lat="45.15077" lon="6.04473">
        <ele>869.65</ele>
        <time>2013-10-26T10:27:57Z</time>
      </trkpt>
      <trkpt lat="45.15032" lon="6.04464">
        <ele>869.17</ele>
        <time>2013-10-26T10:28:05Z</time>
      </trkpt>
      <trkpt lat="45.14983" lon="6.04452">
        <ele>868.21</ele>
        <time>2013-10-26T10:28:13Z</time>
      </trkpt>
      <trkpt lat="45.14935" lon="6.04443">
        <ele>867.25</ele>
        <time>2013-10-26T10:28:20Z</time>
      </trkpt>
      <trkpt lat="45.14886" lon="6.04447">
        <ele>866.77</ele>
        <time>2013-10-26T10:28:27Z</time>
      </trkpt>
      <trkpt lat="45.14839" lon="6.0445">
        <ele>866.29</ele>
        <time>2013-10-26T10:28:34Z</time>
      </trkpt>
      <trkpt lat="45.1479" lon="6.04463">
        <ele>865.32</ele>
        <time>2013-10-26T10:28:41Z</time>
      </trkpt>
      <trkpt lat="45.14742" lon="6.04471">
        <ele>864.84</ele>
        <time>2013-10-26T10:28:48Z</time>
      </trkpt>
      <trkpt lat="45.14697" lon="6.04477">
        <ele>863.88</ele>
        <time>2013-10-26T10:28:55Z</time>
      </trkpt>
      <trkpt lat="45.14649" lon="6.04464">
        <ele>862.92</ele>
        <time>2013-10-26T10:29:03Z</time>
      </trkpt>
      <trkpt lat="45.14603" lon="6.04454">
        <ele>861.96</ele>
        <time>2013-10-26T10:29:10Z</time>
      </trkpt>
      <trkpt lat="45.14565" lon="6.04444">
        <ele>861.48</ele>
        <time>2013-10-26T10:29:51Z</time>
      </trkpt>
      <trkpt lat="45.14517" lon="6.0443">
        <ele>861.48</ele>
        <time>2013-10-26T10:30:18Z</time>
      </trkpt>
      <trkpt lat="45.14473" lon="6.04401">
        <ele>862.92</ele>
        <time>2013-10-26T10:30:33Z</time>
      </trkpt>
      <trkpt lat="45.14425" lon="6.044">
        <ele>865.32</ele>
        <time>2013-10-26T10:30:49Z</time>
      </trkpt>
      <trkpt lat="45.14379" lon="6.04423">
        <ele>867.25</ele>
        <time>2013-10-26T10:31:04Z</time>
      </trkpt>
      <trkpt lat="45.14326" lon="6.04389">
        <ele>869.17</ele>
        <time>2013-10-26T10:31:21Z</time>
      </trkpt>
      <trkpt lat="45.14274" lon="6.04369">
        <ele>869.65</ele>
        <time>2013-10-26T10:31:36Z</time>
      </trkpt>
      <trkpt lat="45.14227" lon="6.04339">
        <ele>869.65</ele>
        <time>2013-10-26T10:31:48Z</time>
      </trkpt>
      <trkpt lat="45.14178" lon="6.04332">
        <ele>868.69</ele>
        <time>2013-10-26T10:31:58Z</time>
      </trkpt>
      <trkpt lat="45.14128" lon="6.04311">
        <ele>866.29</ele>
        <time>2013-10-26T10:32:06Z</time>
      </trkpt>
      <trkpt lat="45.14087" lon="6.04346">
        <ele>864.36</ele>
        <time>2013-10-26T10:32:13Z</time>
      </trkpt>
      <trkpt lat="45.14039" lon="6.04333">
        <ele>861.48</ele>
        <time>2013-10-26T10:32:19Z</time>
      </trkpt>
      <trkpt lat="45.13991" lon="6.04301">
        <ele>859.08</ele>
        <time>2013-10-26T10:32:25Z</time>
      </trkpt>
      <trkpt lat="45.13942" lon="6.04282">
        <ele>852.83</ele>
        <time>2013-10-26T10:32:32Z</time>
      </trkpt>
      <trkpt lat="45.13908" lon="6.0423">
        <ele>846.58</ele>
        <time>2013-10-26T10:32:38Z</time>
      </trkpt>
      <trkpt lat="45.13863" lon="6.04233">
        <ele>845.14</ele>
        <time>2013-10-26T10:32:43Z</time>
      </trkpt>
      <trkpt lat="45.13848" lon="6.04295">
        <ele>846.1</ele>
        <time>2013-10-26T10:32:49Z</time>
      </trkpt>
      <trkpt lat="45.1384" lon="6.04379">
        <ele>848.02</ele>
        <time>2013-10-26T10:33:00Z</time>
      </trkpt>
      <trkpt lat="45.1381" lon="6.04441">
        <ele>851.38</ele>
        <time>2013-10-26T10:33:17Z</time>
      </trkpt>
      <trkpt lat="45.13767" lon="6.04415">
        <ele>852.35</ele>
        <time>2013-10-26T10:33:31Z</time>
      </trkpt>
      <trkpt lat="45.13726" lon="6.04384">
        <ele>853.31</ele>
        <time>2013-10-26T10:33:44Z</time>
      </trkpt>
      <trkpt lat="45.13679" lon="6.04385">
        <ele>853.79</ele>
        <time>2013-10-26T10:33:56Z</time>
      </trkpt>
      <trkpt lat="45.13637" lon="6.04358">
        <ele>854.75</ele>
        <time>2013-10-26T10:34:08Z</time>
      </trkpt>
      <trkpt lat="45.13601" lon="6.04315">
        <ele>855.71</ele>
        <time>2013-10-26T10:34:19Z</time>
      </trkpt>
      <trkpt lat="45.13562" lon="6.04283">
        <ele>856.19</ele>
        <time>2013-10-26T10:34:29Z</time>
      </trkpt>
      <trkpt lat="45.1352" lon="6.0426">
        <ele>856.19</ele>
        <time>2013-10-26T10:34:38Z</time>
      </trkpt>
      <trkpt lat="45.13471" lon="6.04254">
        <ele>856.67</ele>
        <time>2013-10-26T10:34:48Z</time>
      </trkpt>
      <trkpt lat="45.13423" lon="6.04252">
        <ele>857.15</ele>
        <time>2013-10-26T10:34:58Z</time>
      </trkpt>
      <trkpt lat="45.13385" lon="6.04209">
        <ele>857.15</ele>
        <time>2013-10-26T10:35:08Z</time>
      </trkpt>
      <trkpt lat="45.13349" lon="6.04165">
        <ele>857.63</ele>
        <time>2013-10-26T10:35:17Z</time>
      </trkpt>
      <trkpt lat="45.13312" lon="6.04119">
        <ele>857.63</ele>
        <time>2013-10-26T10:35:27Z</time>
      </trkpt>
      <trkpt lat="45.13281" lon="6.04072">
        <ele>858.11</ele>
        <time>2013-10-26T10:35:37Z</time>
      </trkpt>
      <trkpt lat="45.13244" lon="6.04028">
        <ele>858.59</ele>
        <time>2013-10-26T10:35:48Z</time>
      </trkpt>
      <trkpt lat="45.13213" lon="6.03978">
        <ele>859.08</ele>
        <time>2013-10-26T10:35:59Z</time>
      </trkpt>
      <trkpt lat="45.13191" lon="6.03921">
        <ele>859.56</ele>
        <time>2013-10-26T10:36:10Z</time>
      </trkpt>
      <trkpt lat="45.13173" lon="6.03859">
        <ele>861</ele>
        <time>2013-10-26T10:36:23Z</time>
      </trkpt>
      <trkpt lat="45.13143" lon="6.03805">
        <ele>863.4</ele>
        <time>2013-10-26T10:36:38Z</time>
      </trkpt>
      <trkpt lat="45.13118" lon="6.03751">
        <ele>865.8</ele>
        <time>2013-10-26T10:36:56Z</time>
      </trkpt>
      <trkpt lat="45.13092" lon="6.0369">
        <ele>867.73</ele>
        <time>2013-10-26T10:37:11Z</time>
      </trkpt>
      <trkpt lat="45.13058" lon="6.03648">
        <ele>868.69</ele>
        <time>2013-10-26T10:37:29Z</time>
      </trkpt>
      <trkpt lat="45.13039" lon="6.03589">
        <ele>866.77</ele>
        <time>2013-10-26T10:37:39Z</time>
      </trkpt>
      <trkpt lat="45.13019" lon="6.03537">
        <ele>866.77</ele>
        <time>2013-10-26T10:37:48Z</time>
      </trkpt>
      <trkpt lat="45.13002" lon="6.03481">
        <ele>870.13</ele>
        <time>2013-10-26T10:38:08Z</time>
      </trkpt>
      <trkpt lat="45.13008" lon="6.03412">
        <ele>873.98</ele>
        <time>2013-10-26T10:38:33Z</time>
      </trkpt>
      <trkpt lat="45.13022" lon="6.03372">
        <ele>876.38</ele>
        <time>2013-10-26T10:38:55Z</time>
      </trkpt>
      <trkpt lat="45.13018" lon="6.03437">
        <ele>879.26</ele>
        <time>2013-10-26T10:39:18Z</time>
      </trkpt>
      <trkpt lat="45.13044" lon="6.03492">
        <ele>882.63</ele>
        <time>2013-10-26T10:39:42Z</time>
      </trkpt>
      <trkpt lat="45.13082" lon="6.03535">
        <ele>885.99</ele>
        <time>2013-10-26T10:40:06Z</time>
      </trkpt>
      <trkpt lat="45.13119" lon="6.03557">
        <ele>889.36</ele>
        <time>2013-10-26T10:40:32Z</time>
      </trkpt>
      <trkpt lat="45.13158" lon="6.03539">
        <ele>891.28</ele>
        <time>2013-10-26T10:44:24Z</time>
      </trkpt>
      <trkpt lat="45.13182" lon="6.03601">
        <ele>895.12</ele>
        <time>2013-10-26T10:44:50Z</time>
      </trkpt>
      <trkpt lat="45.13197" lon="6.03665">
        <ele>899.45</ele>
        <time>2013-10-26T10:45:17Z</time>
      </trkpt>
      <trkpt lat="45.13238" lon="6.03704">
        <ele>903.3</ele>
        <time>2013-10-26T10:45:44Z</time>
      </trkpt>
      <trkpt lat="45.13283" lon="6.03728">
        <ele>907.14</ele>
        <time>2013-10-26T10:46:11Z</time>
      </trkpt>
      <trkpt lat="45.1332" lon="6.03779">
        <ele>911.47</ele>
        <time>2013-10-26T10:46:37Z</time>
      </trkpt>
      <trkpt lat="45.13349" lon="6.03843">
        <ele>915.79</ele>
        <time>2013-10-26T10:47:03Z</time>
      </trkpt>
      <trkpt lat="45.13382" lon="6.03889">
        <ele>920.12</ele>
        <time>2013-10-26T10:47:29Z</time>
      </trkpt>
      <trkpt lat="45.13424" lon="6.03926">
        <ele>924.45</ele>
        <time>2013-10-26T10:47:56Z</time>
      </trkpt>
      <trkpt lat="45.13477" lon="6.03938">
        <ele>929.25</ele>
        <time>2013-10-26T10:48:27Z</time>
      </trkpt>
      <trkpt lat="45.1353" lon="6.0395">
        <ele>934.54</ele>
        <time>2013-10-26T10:48:55Z</time>
      </trkpt>
      <trkpt lat="45.13535" lon="6.03937">
        <ele>937.9</ele>
        <time>2013-10-26T10:49:20Z</time>
      </trkpt>
      <trkpt lat="45.13488" lon="6.03915">
        <ele>942.23</ele>
        <time>2013-10-26T10:49:46Z</time>
      </trkpt>
      <trkpt lat="45.13438" lon="6.03886">
        <ele>947.04</ele>
        <time>2013-10-26T10:50:14Z</time>
      </trkpt>
      <trkpt lat="45.13402" lon="6.0383">
        <ele>951.84</ele>
        <time>2013-10-26T10:50:42Z</time>
      </trkpt>
      <trkpt lat="45.13379" lon="6.0375">
        <ele>958.09</ele>
        <time>2013-10-26T10:51:17Z</time>
      </trkpt>
      <trkpt lat="45.13381" lon="6.0367">
        <ele>963.38</ele>
        <time>2013-10-26T10:51:46Z</time>
      </trkpt>
      <trkpt lat="45.13374" lon="6.03598">
        <ele>968.67</ele>
        <time>2013-10-26T10:52:17Z</time>
      </trkpt>
      <trkpt lat="45.13358" lon="6.03535">
        <ele>973.47</ele>
        <time>2013-10-26T10:52:46Z</time>
      </trkpt>
      <trkpt lat="45.1339" lon="6.0347">
        <ele>979.24</ele>
        <time>2013-10-26T10:53:21Z</time>
      </trkpt>
      <trkpt lat="45.1337" lon="6.03486">
        <ele>977.8</ele>
        <time>2013-10-26T10:53:44Z</time>
      </trkpt>
      <trkpt lat="45.13356" lon="6.03535">
        <ele>971.55</ele>
        <time>2013-10-26T10:59:13Z</time>
      </trkpt>
      <trkpt lat="45.1338" lon="6.03472">
        <ele>974.91</ele>
        <time>2013-10-26T11:06:13Z</time>
      </trkpt>
      <trkpt lat="45.13422" lon="6.03439">
        <ele>978.76</ele>
        <time>2013-10-26T11:06:46Z</time>
      </trkpt>
      <trkpt lat="45.13454" lon="6.03383">
        <ele>983.09</ele>
        <time>2013-10-26T11:07:19Z</time>
      </trkpt>
      <trkpt lat="45.13452" lon="6.0332">
        <ele>985.49</ele>
        <time>2013-10-26T11:07:47Z</time>
      </trkpt>
      <trkpt lat="45.13469" lon="6.03378">
        <ele>987.89</ele>
        <time>2013-10-26T11:08:11Z</time>
      </trkpt>
      <trkpt lat="45.13448" lon="6.03436">
        <ele>990.78</ele>
        <time>2013-10-26T11:08:36Z</time>
      </trkpt>
      <trkpt lat="45.13423" lon="6.03502">
        <ele>994.62</ele>
        <time>2013-10-26T11:09:04Z</time>
      </trkpt>
      <trkpt lat="45.13436" lon="6.03573">
        <ele>998.47</ele>
        <time>2013-10-26T11:09:33Z</time>
      </trkpt>
      <trkpt lat="45.13457" lon="6.03632">
        <ele>1001.35</ele>
        <time>2013-10-26T11:09:57Z</time>
      </trkpt>
      <trkpt lat="45.13461" lon="6.03625">
        <ele>1003.75</ele>
        <time>2013-10-26T11:10:22Z</time>
      </trkpt>
      <trkpt lat="45.13445" lon="6.03559">
        <ele>1007.6</ele>
        <time>2013-10-26T11:10:50Z</time>
      </trkpt>
      <trkpt lat="45.13463" lon="6.03491">
        <ele>1011.93</ele>
        <time>2013-10-26T11:11:19Z</time>
      </trkpt>
      <trkpt lat="45.13493" lon="6.03434">
        <ele>1016.25</ele>
        <time>2013-10-26T11:11:50Z</time>
      </trkpt>
      <trkpt lat="45.13531" lon="6.03386">
        <ele>1020.58</ele>
        <time>2013-10-26T11:12:23Z</time>
      </trkpt>
      <trkpt lat="45.13563" lon="6.03335">
        <ele>1024.9</ele>
        <time>2013-10-26T11:12:55Z</time>
      </trkpt>
      <trkpt lat="45.13586" lon="6.03274">
        <ele>1029.23</ele>
        <time>2013-10-26T11:13:26Z</time>
      </trkpt>
      <trkpt lat="45.1357" lon="6.0322">
        <ele>1034.04</ele>
        <time>2013-10-26T11:13:57Z</time>
      </trkpt>
      <trkpt lat="45.13525" lon="6.03206">
        <ele>1038.84</ele>
        <time>2013-10-26T11:14:35Z</time>
      </trkpt>
      <trkpt lat="45.13477" lon="6.03182">
        <ele>1043.65</ele>
        <time>2013-10-26T11:15:10Z</time>
      </trkpt>
      <trkpt lat="45.13463" lon="6.03118">
        <ele>1048.45</ele>
        <time>2013-10-26T11:15:45Z</time>
      </trkpt>
      <trkpt lat="45.1343" lon="6.03085">
        <ele>1053.26</ele>
        <time>2013-10-26T11:16:23Z</time>
      </trkpt>
      <trkpt lat="45.13363" lon="6.03097">
        <ele>1058.55</ele>
        <time>2013-10-26T11:17:06Z</time>
      </trkpt>
      <trkpt lat="45.13332" lon="6.03039">
        <ele>1062.87</ele>
        <time>2013-10-26T11:17:40Z</time>
      </trkpt>
      <trkpt lat="45.13329" lon="6.02977">
        <ele>1067.68</ele>
        <time>2013-10-26T11:20:05Z</time>
      </trkpt>
      <trkpt lat="45.13337" lon="6.02908">
        <ele>1071.53</ele>
        <time>2013-10-26T11:20:39Z</time>
      </trkpt>
      <trkpt lat="45.13334" lon="6.02861">
        <ele>1076.33</ele>
        <time>2013-10-26T11:21:20Z</time>
      </trkpt>
      <trkpt lat="45.13284" lon="6.02872">
        <ele>1080.18</ele>
        <time>2013-10-26T11:21:56Z</time>
      </trkpt>
      <trkpt lat="45.1325" lon="6.02827">
        <ele>1083.54</ele>
        <time>2013-10-26T11:22:26Z</time>
      </trkpt>
      <trkpt lat="45.13244" lon="6.02762">
        <ele>1087.87</ele>
        <time>2013-10-26T11:22:58Z</time>
      </trkpt>
      <trkpt lat="45.13219" lon="6.02712">
        <ele>1091.71</ele>
        <time>2013-10-26T11:23:31Z</time>
      </trkpt>
      <trkpt lat="45.1319" lon="6.0266">
        <ele>1096.04</ele>
        <time>2013-10-26T11:24:05Z</time>
      </trkpt>
      <trkpt lat="45.13171" lon="6.02595">
        <ele>1100.37</ele>
        <time>2013-10-26T11:24:40Z</time>
      </trkpt>
      <trkpt lat="45.13148" lon="6.02531">
        <ele>1104.69</ele>
        <time>2013-10-26T11:25:15Z</time>
      </trkpt>
      <trkpt lat="45.13136" lon="6.0247">
        <ele>1108.54</ele>
        <time>2013-10-26T11:25:50Z</time>
      </trkpt>
      <trkpt lat="45.13168" lon="6.02424">
        <ele>1112.86</ele>
        <time>2013-10-26T11:26:28Z</time>
      </trkpt>
      <trkpt lat="45.1318" lon="6.02367">
        <ele>1117.19</ele>
        <time>2013-10-26T11:27:04Z</time>
      </trkpt>
      <trkpt lat="45.13158" lon="6.02304">
        <ele>1122</ele>
        <time>2013-10-26T11:27:46Z</time>
      </trkpt>
      <trkpt lat="45.13165" lon="6.02228">
        <ele>1126.32</ele>
        <time>2013-10-26T11:28:31Z</time>
      </trkpt>
      <trkpt lat="45.13134" lon="6.02198">
        <ele>1130.17</ele>
        <time>2013-10-26T11:29:12Z</time>
      </trkpt>
      <trkpt lat="45.13082" lon="6.02188">
        <ele>1137.38</ele>
        <time>2013-10-26T11:30:00Z</time>
      </trkpt>
      <trkpt lat="45.13042" lon="6.02151">
        <ele>1142.18</ele>
        <time>2013-10-26T11:31:46Z</time>
      </trkpt>
      <trkpt lat="45.13006" lon="6.02109">
        <ele>1147.47</ele>
        <time>2013-10-26T11:32:24Z</time>
      </trkpt>
      <trkpt lat="45.12987" lon="6.0205">
        <ele>1152.28</ele>
        <time>2013-10-26T11:33:05Z</time>
      </trkpt>
      <trkpt lat="45.12951" lon="6.02011">
        <ele>1155.16</ele>
        <time>2013-10-26T11:33:40Z</time>
      </trkpt>
      <trkpt lat="45.12917" lon="6.01952">
        <ele>1158.05</ele>
        <time>2013-10-26T11:34:16Z</time>
      </trkpt>
      <trkpt lat="45.1288" lon="6.0188">
        <ele>1161.89</ele>
        <time>2013-10-26T11:34:52Z</time>
      </trkpt>
      <trkpt lat="45.12847" lon="6.01809">
        <ele>1166.7</ele>
        <time>2013-10-26T11:35:31Z</time>
      </trkpt>
      <trkpt lat="45.12837" lon="6.01757">
        <ele>1169.58</ele>
        <time>2013-10-26T11:36:00Z</time>
      </trkpt>
      <trkpt lat="45.12865" lon="6.01807">
        <ele>1171.5</ele>
        <time>2013-10-26T11:36:27Z</time>
      </trkpt>
      <trkpt lat="45.12896" lon="6.01862">
        <ele>1175.83</ele>
        <time>2013-10-26T11:36:59Z</time>
      </trkpt>
      <trkpt lat="45.12932" lon="6.01913">
        <ele>1180.16</ele>
        <time>2013-10-26T11:37:36Z</time>
      </trkpt>
      <trkpt lat="45.12972" lon="6.01958">
        <ele>1184</ele>
        <time>2013-10-26T11:38:09Z</time>
      </trkpt>
      <trkpt lat="45.13024" lon="6.01994">
        <ele>1188.81</ele>
        <time>2013-10-26T11:38:47Z</time>
      </trkpt>
      <trkpt lat="45.13081" lon="6.02025">
        <ele>1194.58</ele>
        <time>2013-10-26T11:39:28Z</time>
      </trkpt>
      <trkpt lat="45.13133" lon="6.02053">
        <ele>1198.9</ele>
        <time>2013-10-26T11:40:07Z</time>
      </trkpt>
      <trkpt lat="45.13186" lon="6.02066">
        <ele>1203.23</ele>
        <time>2013-10-26T11:40:45Z</time>
      </trkpt>
      <trkpt lat="45.13235" lon="6.02037">
        <ele>1207.07</ele>
        <time>2013-10-26T11:41:24Z</time>
      </trkpt>
      <trkpt lat="45.13283" lon="6.02052">
        <ele>1211.4</ele>
        <time>2013-10-26T11:45:15Z</time>
      </trkpt>
      <trkpt lat="45.13283" lon="6.02117">
        <ele>1211.88</ele>
        <time>2013-10-26T11:45:46Z</time>
      </trkpt>
      <trkpt lat="45.13281" lon="6.02188">
        <ele>1215.72</ele>
        <time>2013-10-26T11:46:19Z</time>
      </trkpt>
      <trkpt lat="45.13291" lon="6.02267">
        <ele>1221.49</ele>
        <time>2013-10-26T11:47:05Z</time>
      </trkpt>
      <trkpt lat="45.13326" lon="6.02335">
        <ele>1227.74</ele>
        <time>2013-10-26T11:47:55Z</time>
      </trkpt>
      <trkpt lat="45.13377" lon="6.02386">
        <ele>1233.99</ele>
        <time>2013-10-26T11:48:46Z</time>
      </trkpt>
      <trkpt lat="45.13435" lon="6.02438">
        <ele>1242.16</ele>
        <time>2013-10-26T11:49:46Z</time>
      </trkpt>
      <trkpt lat="45.13496" lon="6.02472">
        <ele>1249.85</ele>
        <time>2013-10-26T11:50:42Z</time>
      </trkpt>
      <trkpt lat="45.13543" lon="6.02515">
        <ele>1254.18</ele>
        <time>2013-10-26T11:51:24Z</time>
      </trkpt>
      <trkpt lat="45.13604" lon="6.02568">
        <ele>1262.83</ele>
        <time>2013-10-26T11:52:30Z</time>
      </trkpt>
      <trkpt lat="45.13642" lon="6.02623">
        <ele>1269.56</ele>
        <time>2013-10-26T11:53:29Z</time>
      </trkpt>
      <trkpt lat="45.13695" lon="6.02655">
        <ele>1273.88</ele>
        <time>2013-10-26T11:54:22Z</time>
      </trkpt>
      <trkpt lat="45.13752" lon="6.02669">
        <ele>1275.33</ele>
        <time>2013-10-26T11:55:17Z</time>
      </trkpt>
      <trkpt lat="45.13804" lon="6.02664">
        <ele>1274.85</ele>
        <time>2013-10-26T11:55:33Z</time>
      </trkpt>
      <trkpt lat="45.13845" lon="6.02622">
        <ele>1273.88</ele>
        <time>2013-10-26T11:55:49Z</time>
      </trkpt>
      <trkpt lat="45.1386" lon="6.02691">
        <ele>1273.88</ele>
        <time>2013-10-26T11:56:03Z</time>
      </trkpt>
      <trkpt lat="45.13878" lon="6.02753">
        <ele>1272.44</ele>
        <time>2013-10-26T11:56:19Z</time>
      </trkpt>
      <trkpt lat="45.13923" lon="6.02789">
        <ele>1271.96</ele>
        <time>2013-10-26T11:56:32Z</time>
      </trkpt>
      <trkpt lat="45.13966" lon="6.02827">
        <ele>1271.48</ele>
        <time>2013-10-26T11:56:44Z</time>
      </trkpt>
      <trkpt lat="45.13981" lon="6.02888">
        <ele>1270.52</ele>
        <time>2013-10-26T11:56:56Z</time>
      </trkpt>
      <trkpt lat="45.14007" lon="6.02937">
        <ele>1270.04</ele>
        <time>2013-10-26T11:57:11Z</time>
      </trkpt>
      <trkpt lat="45.14058" lon="6.02916">
        <ele>1270.52</ele>
        <time>2013-10-26T11:57:29Z</time>
      </trkpt>
      <trkpt lat="45.14103" lon="6.0289">
        <ele>1270.52</ele>
        <time>2013-10-26T11:57:42Z</time>
      </trkpt>
      <trkpt lat="45.14135" lon="6.02839">
        <ele>1271.48</ele>
        <time>2013-10-26T11:57:55Z</time>
      </trkpt>
      <trkpt lat="45.14183" lon="6.02829">
        <ele>1273.4</ele>
        <time>2013-10-26T11:58:10Z</time>
      </trkpt>
      <trkpt lat="45.14223" lon="6.02787">
        <ele>1274.85</ele>
        <time>2013-10-26T11:58:27Z</time>
      </trkpt>
      <trkpt lat="45.14265" lon="6.0279">
        <ele>1276.77</ele>
        <time>2013-10-26T11:59:07Z</time>
      </trkpt>
      <trkpt lat="45.14318" lon="6.02796">
        <ele>1279.65</ele>
        <time>2013-10-26T11:59:33Z</time>
      </trkpt>
      <trkpt lat="45.14376" lon="6.02785">
        <ele>1282.06</ele>
        <time>2013-10-26T11:59:59Z</time>
      </trkpt>
      <trkpt lat="45.14382" lon="6.02832">
        <ele>1284.46</ele>
        <time>2013-10-26T12:01:52Z</time>
      </trkpt>
      <trkpt lat="45.14379" lon="6.02905">
        <ele>1289.75</ele>
        <time>2013-10-26T12:02:30Z</time>
      </trkpt>
      <trkpt lat="45.14374" lon="6.02976">
        <ele>1293.11</ele>
        <time>2013-10-26T12:03:05Z</time>
      </trkpt>
      <trkpt lat="45.14374" lon="6.03048">
        <ele>1296.96</ele>
        <time>2013-10-26T12:03:41Z</time>
      </trkpt>
      <trkpt lat="45.14367" lon="6.03124">
        <ele>1300.8</ele>
        <time>2013-10-26T12:04:16Z</time>
      </trkpt>
      <trkpt lat="45.14381" lon="6.03197">
        <ele>1305.61</ele>
        <time>2013-10-26T12:04:54Z</time>
      </trkpt>
      <trkpt lat="45.14403" lon="6.03268">
        <ele>1310.41</ele>
        <time>2013-10-26T12:05:33Z</time>
      </trkpt>
      <trkpt lat="45.14417" lon="6.03331">
        <ele>1314.26</ele>
        <time>2013-10-26T12:06:13Z</time>
      </trkpt>
      <trkpt lat="45.1442" lon="6.03371">
        <ele>1310.9</ele>
        <time>2013-10-26T12:07:25Z</time>
      </trkpt>
      <trkpt lat="45.14388" lon="6.03358">
        <ele>1304.65</ele>
        <time>2013-10-26T12:49:38Z</time>
      </trkpt>
      <trkpt lat="45.14368" lon="6.03406">
        <ele>1291.19</ele>
        <time>2013-10-26T12:50:04Z</time>
      </trkpt>
      <trkpt lat="45.1435" lon="6.03456">
        <ele>1275.33</ele>
        <time>2013-10-26T12:51:12Z</time>
      </trkpt>
      <trkpt lat="45.1432" lon="6.03411">
        <ele>1262.83</ele>
        <time>2013-10-26T12:51:32Z</time>
      </trkpt>
      <trkpt lat="45.14286" lon="6.03359">
        <ele>1249.85</ele>
        <time>2013-10-26T12:51:55Z</time>
      </trkpt>
      <trkpt lat="45.14258" lon="6.03298">
        <ele>1230.14</ele>
        <time>2013-10-26T12:52:26Z</time>
      </trkpt>
      <trkpt lat="45.1423" lon="6.03319">
        <ele>1214.28</ele>
        <time>2013-10-26T12:53:01Z</time>
      </trkpt>
      <trkpt lat="45.14205" lon="6.03343">
        <ele>1196.02</ele>
        <time>2013-10-26T12:53:22Z</time>
      </trkpt>
      <trkpt lat="45.14171" lon="6.03263">
        <ele>1186.4</ele>
        <time>2013-10-26T12:58:42Z</time>
      </trkpt>
      <trkpt lat="45.14141" lon="6.03277">
        <ele>1168.62</ele>
        <time>2013-10-26T13:00:08Z</time>
      </trkpt>
      <trkpt lat="45.14092" lon="6.03303">
        <ele>1151.8</ele>
        <time>2013-10-26T13:00:28Z</time>
      </trkpt>
      <trkpt lat="45.14056" lon="6.03349">
        <ele>1134.49</ele>
        <time>2013-10-26T13:00:57Z</time>
      </trkpt>
      <trkpt lat="45.14037" lon="6.03402">
        <ele>1116.23</ele>
        <time>2013-10-26T13:01:26Z</time>
      </trkpt>
      <trkpt lat="45.14008" lon="6.03443">
        <ele>1101.81</ele>
        <time>2013-10-26T13:02:01Z</time>
      </trkpt>
      <trkpt lat="45.13977" lon="6.03502">
        <ele>1088.35</ele>
        <time>2013-10-26T13:02:15Z</time>
      </trkpt>
      <trkpt lat="45.13945" lon="6.03553">
        <ele>1073.93</ele>
        <time>2013-10-26T13:02:27Z</time>
      </trkpt>
      <trkpt lat="45.13949" lon="6.03617">
        <ele>1050.86</ele>
        <time>2013-10-26T13:02:55Z</time>
      </trkpt>
      <trkpt lat="45.13965" lon="6.03644">
        <ele>1031.63</ele>
        <time>2013-10-26T13:03:14Z</time>
      </trkpt>
      <trkpt lat="45.13979" lon="6.03714">
        <ele>1015.77</ele>
        <time>2013-10-26T13:03:33Z</time>
      </trkpt>
      <trkpt lat="45.13998" lon="6.03773">
        <ele>1008.08</ele>
        <time>2013-10-26T13:04:04Z</time>
      </trkpt>
      <trkpt lat="45.14012" lon="6.03821">
        <ele>1010.96</ele>
        <time>2013-10-26T13:04:31Z</time>
      </trkpt>
      <trkpt lat="45.13993" lon="6.0376">
        <ele>1007.6</ele>
        <time>2013-10-26T13:04:41Z</time>
      </trkpt>
      <trkpt lat="45.13953" lon="6.03768">
        <ele>995.1</ele>
        <time>2013-10-26T13:04:55Z</time>
      </trkpt>
      <trkpt lat="45.13949" lon="6.03772">
        <ele>992.7</ele>
        <time>2013-10-26T13:05:19Z</time>
      </trkpt>
      <trkpt lat="45.13943" lon="6.03817">
        <ele>980.68</ele>
        <time>2013-10-26T13:05:33Z</time>
      </trkpt>
      <trkpt lat="45.13933" lon="6.0388">
        <ele>968.67</ele>
        <time>2013-10-26T13:05:42Z</time>
      </trkpt>
      <trkpt lat="45.13964" lon="6.03909">
        <ele>960.98</ele>
        <time>2013-10-26T13:05:56Z</time>
      </trkpt>
      <trkpt lat="45.13986" lon="6.03979">
        <ele>959.53</ele>
        <time>2013-10-26T13:06:11Z</time>
      </trkpt>
      <trkpt lat="45.14027" lon="6.04053">
        <ele>957.61</ele>
        <time>2013-10-26T13:06:42Z</time>
      </trkpt>
      <trkpt lat="45.14055" lon="6.0411">
        <ele>945.11</ele>
        <time>2013-10-26T13:06:53Z</time>
      </trkpt>
      <trkpt lat="45.14091" lon="6.04149">
        <ele>932.62</ele>
        <time>2013-10-26T13:07:09Z</time>
      </trkpt>
      <trkpt lat="45.14145" lon="6.04174">
        <ele>926.37</ele>
        <time>2013-10-26T13:07:31Z</time>
      </trkpt>
      <trkpt lat="45.14184" lon="6.04239">
        <ele>914.35</ele>
        <time>2013-10-26T13:07:47Z</time>
      </trkpt>
      <trkpt lat="45.14238" lon="6.04281">
        <ele>902.33</ele>
        <time>2013-10-26T13:08:12Z</time>
      </trkpt>
      <trkpt lat="45.14285" lon="6.04334">
        <ele>889.36</ele>
        <time>2013-10-26T13:08:33Z</time>
      </trkpt>
      <trkpt lat="45.14293" lon="6.04365">
        <ele>882.63</ele>
        <time>2013-10-26T13:08:55Z</time>
      </trkpt>
      <trkpt lat="45.14321" lon="6.0438">
        <ele>879.26</ele>
        <time>2013-10-26T13:09:15Z</time>
      </trkpt>
      <trkpt lat="45.14365" lon="6.04414">
        <ele>877.34</ele>
        <time>2013-10-26T13:09:26Z</time>
      </trkpt>
      <trkpt lat="45.1441" lon="6.04409">
        <ele>875.42</ele>
        <time>2013-10-26T13:09:36Z</time>
      </trkpt>
      <trkpt lat="45.14456" lon="6.04399">
        <ele>873.01</ele>
        <time>2013-10-26T13:09:46Z</time>
      </trkpt>
      <trkpt lat="45.14511" lon="6.04426">
        <ele>871.09</ele>
        <time>2013-10-26T13:09:53Z</time>
      </trkpt>
      <trkpt lat="45.14559" lon="6.04445">
        <ele>873.98</ele>
        <time>2013-10-26T13:10:02Z</time>
      </trkpt>
      <trkpt lat="45.14613" lon="6.04456">
        <ele>870.61</ele>
        <time>2013-10-26T13:10:30Z</time>
      </trkpt>
      <trkpt lat="45.14577" lon="6.04448">
        <ele>870.61</ele>
        <time>2013-10-26T13:10:50Z</time>
      </trkpt>
      <trkpt lat="45.14576" lon="6.04493">
        <ele>858.11</ele>
        <time>2013-10-26T13:11:09Z</time>
      </trkpt>
      <trkpt lat="45.14622" lon="6.04523">
        <ele>842.25</ele>
        <time>2013-10-26T13:11:34Z</time>
      </trkpt>
      <trkpt lat="45.14669" lon="6.04524">
        <ele>844.66</ele>
        <time>2013-10-26T13:12:39Z</time>
      </trkpt>
      <trkpt lat="45.14712" lon="6.04532">
        <ele>836.48</ele>
        <time>2013-10-26T13:13:56Z</time>
      </trkpt>
      <trkpt lat="45.1476" lon="6.04545">
        <ele>825.43</ele>
        <time>2013-10-26T13:14:13Z</time>
      </trkpt>
      <trkpt lat="45.14809" lon="6.04549">
        <ele>814.85</ele>
        <time>2013-10-26T13:15:25Z</time>
      </trkpt>
      <trkpt lat="45.14844" lon="6.04554">
        <ele>810.05</ele>
        <time>2013-10-26T13:16:30Z</time>
      </trkpt>
      <trkpt lat="45.14895" lon="6.0457">
        <ele>806.68</ele>
        <time>2013-10-26T13:16:52Z</time>
      </trkpt>
      <trkpt lat="45.1495" lon="6.04568">
        <ele>807.16</ele>
        <time>2013-10-26T13:17:15Z</time>
      </trkpt>
      <trkpt lat="45.15" lon="6.0458">
        <ele>813.41</ele>
        <time>2013-10-26T13:17:53Z</time>
      </trkpt>
      <trkpt lat="45.15054" lon="6.04586">
        <ele>813.89</ele>
        <time>2013-10-26T13:18:26Z</time>
      </trkpt>
      <trkpt lat="45.15113" lon="6.04606">
        <ele>810.53</ele>
        <time>2013-10-26T13:18:43Z</time>
      </trkpt>
      <trkpt lat="45.15166" lon="6.04594">
        <ele>811.97</ele>
        <time>2013-10-26T13:19:00Z</time>
      </trkpt>
      <trkpt lat="45.15216" lon="6.0457">
        <ele>813.41</ele>
        <time>2013-10-26T13:19:25Z</time>
      </trkpt>
      <trkpt lat="45.15264" lon="6.04553">
        <ele>815.34</ele>
        <time>2013-10-26T13:19:50Z</time>
      </trkpt>
      <trkpt lat="45.15318" lon="6.04546">
        <ele>820.14</ele>
        <time>2013-10-26T13:20:29Z</time>
      </trkpt>
    </trkseg>
  </trk>
</gpx>